createdAt,value
2022-10-25T00:00:28.046Z,97159.28
2022-10-25T00:01:32.391Z,97159.09
2022-10-25T00:02:37.111Z,97155.44
2022-10-25T00:03:38.884Z,97153.41
2022-10-25T00:04:40.790Z,97148.16
2022-10-25T00:05:42.910Z,97150.00
2022-10-25T00:06:45.344Z,97158.25
2022-10-25T00:07:47.374Z,97153.41
2022-10-25T00:08:49.551Z,97153.75
2022-10-25T00:09:51.369Z,97154.94
2022-10-25T00:10:53.245Z,97161.38
2022-10-25T00:11:55.040Z,97154.53
2022-10-25T00:12:56.957Z,97159.19
2022-10-25T00:13:59.897Z,97153.34
2022-10-25T00:15:02.160Z,97150.72
2022-10-25T00:16:04.147Z,97144.09
2022-10-25T00:17:05.928Z,97148.53
2022-10-25T00:18:07.876Z,97151.38
2022-10-25T00:19:12.052Z,97141.75
2022-10-25T00:20:13.978Z,97155.63
2022-10-25T00:21:15.793Z,97159.84
2022-10-25T00:22:17.547Z,97160.44
2022-10-25T00:23:19.412Z,97160.81
2022-10-25T00:24:21.207Z,97168.03
2022-10-25T00:25:23.069Z,97169.28
2022-10-25T00:26:24.912Z,97175.53
2022-10-25T00:27:26.891Z,97161.84
2022-10-25T00:28:28.833Z,97164.66
2022-10-25T00:29:30.659Z,97171.50
2022-10-25T00:30:32.451Z,97167.28
2022-10-25T00:31:34.542Z,97160.06
2022-10-25T00:32:36.410Z,97163.88
2022-10-25T00:33:38.728Z,97162.06
2022-10-25T00:34:40.803Z,97161.84
2022-10-25T00:35:42.600Z,97160.66
2022-10-25T00:36:44.455Z,97152.22
2022-10-25T00:37:46.287Z,97149.94
2022-10-25T00:38:48.581Z,97158.41
2022-10-25T00:39:50.428Z,97155.41
2022-10-25T00:40:52.235Z,97161.66
2022-10-25T00:41:54.013Z,97167.09
2022-10-25T00:42:55.811Z,97158.25
2022-10-25T00:44:17.500Z,97153.25
2022-10-25T00:45:24.564Z,97154.25
2022-10-25T00:46:31.267Z,97154.25
2022-10-25T00:47:45.463Z,97155.03
2022-10-25T00:49:02.776Z,97153.84
2022-10-25T00:50:11.384Z,97161.84
2022-10-25T00:51:13.219Z,97153.41
2022-10-25T00:52:15.584Z,97150.53
2022-10-25T00:53:22.360Z,97150.72
2022-10-25T00:54:27.008Z,97153.75
2022-10-25T00:55:29.022Z,97159.19
2022-10-25T00:56:33.832Z,97154.59
2022-10-25T00:57:55.865Z,97159.84
2022-10-25T00:58:59.516Z,97157.00
2022-10-25T01:00:01.912Z,97147.34
2022-10-25T01:01:06.365Z,97149.53
2022-10-25T01:02:08.839Z,97151.72
2022-10-25T01:03:11.017Z,97148.13
2022-10-25T01:04:16.081Z,97151.72
2022-10-25T01:05:18.284Z,97152.56
2022-10-25T01:06:39.179Z,97151.53
2022-10-25T01:07:41.154Z,97147.91
2022-10-25T01:08:43.425Z,97143.47
2022-10-25T01:09:45.290Z,97153.16
2022-10-25T01:10:47.952Z,97158.16
2022-10-25T01:11:49.780Z,97164.63
2022-10-25T01:12:52.326Z,97161.81
2022-10-25T01:13:54.943Z,97163.38
2022-10-25T01:14:57.184Z,97153.75
2022-10-25T01:16:05.016Z,97156.38
2022-10-25T01:17:33.274Z,97161.03
2022-10-25T01:18:48.775Z,97165.06
2022-10-25T01:20:06.048Z,97161.22
2022-10-25T01:21:19.710Z,97163.81
2022-10-25T01:22:31.216Z,97157.78
2022-10-25T01:23:53.534Z,97155.78
2022-10-25T01:25:04.375Z,97154.78
2022-10-25T01:26:06.146Z,97154.59
2022-10-25T01:27:26.877Z,97156.19
2022-10-25T01:28:28.720Z,97163.03
2022-10-25T01:29:49.140Z,97159.00
2022-10-25T01:30:53.642Z,97160.03
2022-10-25T01:32:03.168Z,97154.00
2022-10-25T01:33:16.683Z,97157.19
2022-10-25T01:34:23.928Z,97149.94
2022-10-25T01:35:31.390Z,97167.44
2022-10-25T01:36:33.094Z,97157.22
2022-10-25T01:37:40.801Z,97161.47
2022-10-25T01:39:01.205Z,97159.28
2022-10-25T01:40:07.491Z,97163.09
2022-10-25T01:41:09.260Z,97159.69
2022-10-25T01:42:24.050Z,97163.50
2022-10-25T01:43:40.954Z,97155.63
2022-10-25T01:45:01.468Z,97158.50
2022-10-25T01:46:06.301Z,97154.63
2022-10-25T01:47:16.038Z,97152.41
2022-10-25T01:48:21.863Z,97150.78
2022-10-25T01:49:28.812Z,97157.66
2022-10-25T01:50:33.003Z,97150.78
2022-10-25T01:51:38.441Z,97155.44
2022-10-25T01:52:40.209Z,97148.16
2022-10-25T01:53:46.345Z,97156.03
2022-10-25T01:54:48.574Z,97148.59
2022-10-25T01:55:54.567Z,97163.09
2022-10-25T01:57:05.658Z,97158.06
2022-10-25T01:58:07.485Z,97152.63
2022-10-25T01:59:18.325Z,97153.41
2022-10-25T02:00:21.990Z,97155.44
2022-10-25T02:01:23.974Z,97151.81
2022-10-25T02:02:25.848Z,97155.44
2022-10-25T02:03:50.619Z,97159.09
2022-10-25T02:05:18.495Z,97160.28
2022-10-25T02:06:46.448Z,97162.44
2022-10-25T02:07:57.915Z,97152.56
2022-10-25T02:09:03.079Z,97157.81
2022-10-25T02:11:16.235Z,97152.22
2022-10-25T02:12:21.975Z,97162.25
2022-10-25T02:13:29.760Z,97154.59
2022-10-25T02:14:42.179Z,97152.56
2022-10-25T02:15:58.195Z,97161.25
2022-10-25T02:17:06.013Z,97153.00
2022-10-25T02:18:12.301Z,97165.47
2022-10-25T02:19:18.000Z,97162.03
2022-10-25T02:20:21.900Z,97160.88
2022-10-25T02:21:25.665Z,97157.84
2022-10-25T02:22:29.170Z,97160.28
2022-10-25T02:23:32.583Z,97158.44
2022-10-25T02:24:35.375Z,97156.63
2022-10-25T02:25:39.997Z,97156.81
2022-10-25T02:26:43.672Z,97159.25
2022-10-25T02:27:46.815Z,97154.41
2022-10-25T02:28:49.360Z,97151.19
2022-10-25T02:29:52.657Z,97152.81
2022-10-25T02:30:56.767Z,97150.78
2022-10-25T02:31:58.904Z,97146.94
2022-10-25T02:33:00.794Z,97148.94
2022-10-25T02:34:02.861Z,97157.81
2022-10-25T02:35:04.901Z,97147.78
2022-10-25T02:36:06.745Z,97149.94
2022-10-25T02:37:08.583Z,97154.19
2022-10-25T02:38:10.425Z,97159.00
2022-10-25T02:39:12.149Z,97153.56
2022-10-25T02:40:14.065Z,97148.91
2022-10-25T02:41:15.939Z,97152.31
2022-10-25T02:42:17.832Z,97155.75
2022-10-25T02:43:19.654Z,97160.56
2022-10-25T02:44:21.448Z,97159.56
2022-10-25T02:45:23.315Z,97156.94
2022-10-25T02:46:25.072Z,97152.13
2022-10-25T02:47:26.927Z,97157.16
2022-10-25T02:48:28.735Z,97155.75
2022-10-25T02:49:30.582Z,97153.34
2022-10-25T02:50:32.352Z,97150.28
2022-10-25T02:51:34.181Z,97151.91
2022-10-25T02:52:36.091Z,97156.13
2022-10-25T02:53:38.400Z,97156.72
2022-10-25T02:54:40.237Z,97157.53
2022-10-25T02:55:42.035Z,97155.72
2022-10-25T02:56:43.845Z,97157.31
2022-10-25T02:57:45.723Z,97152.06
2022-10-25T02:58:47.974Z,97157.53
2022-10-25T02:59:49.840Z,97163.59
2022-10-25T03:00:51.792Z,97160.16
2022-10-25T03:01:53.670Z,97158.75
2022-10-25T03:02:55.673Z,97165.41
2022-10-25T03:03:57.447Z,97155.75
2022-10-25T03:04:59.327Z,97156.34
2022-10-25T03:06:01.158Z,97159.34
2022-10-25T03:07:03.018Z,97162.53
2022-10-25T03:08:04.870Z,97164.97
2022-10-25T03:09:06.682Z,97163.97
2022-10-25T03:10:08.691Z,97165.34
2022-10-25T03:11:11.283Z,97165.16
2022-10-25T03:12:13.101Z,97162.53
2022-10-25T03:13:15.015Z,97160.72
2022-10-25T03:14:16.796Z,97163.53
2022-10-25T03:15:18.611Z,97177.44
2022-10-25T03:16:20.391Z,97165.94
2022-10-25T03:17:22.130Z,97167.53
2022-10-25T03:18:24.191Z,97165.75
2022-10-25T03:19:26.070Z,97159.69
2022-10-25T03:20:27.926Z,97158.09
2022-10-25T03:21:29.683Z,97164.31
2022-10-25T03:22:32.213Z,97166.94
2022-10-25T03:23:34.441Z,97167.97
2022-10-25T03:24:36.216Z,97167.38
2022-10-25T03:25:38.088Z,97173.63
2022-10-25T03:26:39.971Z,97175.66
2022-10-25T03:27:41.686Z,97171.84
2022-10-25T03:28:43.500Z,97169.66
2022-10-25T03:29:45.280Z,97171.03
2022-10-25T03:30:47.220Z,97169.47
2022-10-25T03:31:49.106Z,97169.06
2022-10-25T03:32:50.838Z,97180.38
2022-10-25T03:33:52.727Z,97178.34
2022-10-25T03:34:54.565Z,97186.59
2022-10-25T03:35:56.788Z,97197.44
2022-10-25T03:36:59.029Z,97198.47
2022-10-25T03:38:00.745Z,97202.47
2022-10-25T03:39:02.573Z,97203.28
2022-10-25T03:40:04.561Z,97198.88
2022-10-25T03:41:06.376Z,97197.03
2022-10-25T03:42:08.235Z,97196.44
2022-10-25T03:43:10.115Z,97192.44
2022-10-25T03:44:11.926Z,97194.88
2022-10-25T03:45:13.719Z,97200.16
2022-10-25T03:46:15.527Z,97204.00
2022-10-25T03:47:17.581Z,97197.97
2022-10-25T03:48:19.390Z,97195.94
2022-10-25T03:49:21.224Z,97194.13
2022-10-25T03:50:22.950Z,97195.75
2022-10-25T03:51:24.803Z,97188.88
2022-10-25T03:52:26.707Z,97198.56
2022-10-25T03:53:28.502Z,97190.50
2022-10-25T03:54:30.367Z,97186.84
2022-10-25T03:55:32.748Z,97183.63
2022-10-25T03:56:34.498Z,97189.22
2022-10-25T03:57:36.366Z,97189.22
2022-10-25T03:58:38.098Z,97192.88
2022-10-25T03:59:39.852Z,97187.63
2022-10-25T04:00:41.779Z,97190.06
2022-10-25T04:01:43.774Z,97198.53
2022-10-25T04:02:45.809Z,97199.34
2022-10-25T04:03:47.646Z,97189.66
2022-10-25T04:04:49.477Z,97195.69
2022-10-25T04:05:51.302Z,97192.28
2022-10-25T04:06:53.167Z,97196.50
2022-10-25T04:07:54.942Z,97194.47
2022-10-25T04:08:57.409Z,97187.22
2022-10-25T04:09:59.247Z,97184.97
2022-10-25T04:11:01.126Z,97184.56
2022-10-25T04:12:02.941Z,97183.16
2022-10-25T04:13:04.807Z,97175.09
2022-10-25T04:14:06.637Z,97177.91
2022-10-25T04:15:08.910Z,97172.28
2022-10-25T04:16:10.975Z,97171.84
2022-10-25T04:17:12.757Z,97175.06
2022-10-25T04:18:14.534Z,97178.28
2022-10-25T04:19:16.460Z,97185.94
2022-10-25T04:20:18.449Z,97183.09
2022-10-25T04:21:20.592Z,97182.31
2022-10-25T04:22:22.424Z,97183.31
2022-10-25T04:23:24.298Z,97186.94
2022-10-25T04:24:26.088Z,97187.16
2022-10-25T04:25:28.747Z,97193.19
2022-10-25T04:26:30.730Z,97189.78
2022-10-25T04:27:32.511Z,97196.44
2022-10-25T04:28:34.254Z,97198.47
2022-10-25T04:29:36.072Z,97196.50
2022-10-25T04:30:38.891Z,97196.50
2022-10-25T04:31:40.879Z,97196.50
2022-10-25T04:32:42.687Z,97197.53
2022-10-25T04:33:48.044Z,97199.94
2022-10-25T04:34:50.756Z,97199.72
2022-10-25T04:35:53.286Z,97207.38
2022-10-25T04:36:55.179Z,97209.38
2022-10-25T04:37:57.600Z,97206.97
2022-10-25T04:38:59.830Z,97208.19
2022-10-25T04:40:01.621Z,97200.97
2022-10-25T04:41:03.365Z,97195.50
2022-10-25T04:42:05.260Z,97196.94
2022-10-25T04:43:07.040Z,97199.53
2022-10-25T04:44:09.530Z,97195.09
2022-10-25T04:45:11.362Z,97186.44
2022-10-25T04:46:13.630Z,97185.44
2022-10-25T04:47:15.486Z,97193.09
2022-10-25T04:48:17.767Z,97193.69
2022-10-25T04:49:19.612Z,97195.28
2022-10-25T04:50:21.555Z,97198.50
2022-10-25T04:51:23.382Z,97207.97
2022-10-25T04:52:25.216Z,97204.34
2022-10-25T04:53:27.001Z,97205.34
2022-10-25T04:54:28.832Z,97212.59
2022-10-25T04:55:31.777Z,97219.47
2022-10-25T04:56:34.200Z,97228.31
2022-10-25T04:57:36.037Z,97226.50
2022-10-25T04:58:37.865Z,97229.72
2022-10-25T04:59:39.735Z,97231.31
2022-10-25T05:00:41.516Z,97229.94
2022-10-25T05:01:43.704Z,97239.81
2022-10-25T05:02:46.007Z,97241.03
2022-10-25T05:03:49.164Z,97233.19
2022-10-25T05:04:50.936Z,97236.41
2022-10-25T05:05:52.712Z,97232.16
2022-10-25T05:06:54.486Z,97235.59
2022-10-25T05:07:56.386Z,97240.03
2022-10-25T05:08:58.157Z,97232.41
2022-10-25T05:09:59.939Z,97240.84
2022-10-25T05:11:01.817Z,97242.44
2022-10-25T05:12:03.725Z,97253.50
2022-10-25T05:13:05.630Z,97242.63
2022-10-25T05:14:07.544Z,97239.22
2022-10-25T05:15:10.026Z,97242.63
2022-10-25T05:16:22.235Z,97247.28
2022-10-25T05:17:24.031Z,97251.50
2022-10-25T05:18:25.860Z,97242.03
2022-10-25T05:19:27.668Z,97251.72
2022-10-25T05:20:29.673Z,97247.28
2022-10-25T05:21:31.691Z,97245.66
2022-10-25T05:22:33.517Z,97252.16
2022-10-25T05:23:35.326Z,97245.13
2022-10-25T05:24:37.139Z,97248.94
2022-10-25T05:25:38.948Z,97246.91
2022-10-25T05:26:40.838Z,97252.97
2022-10-25T05:27:42.795Z,97259.81
2022-10-25T05:28:45.385Z,97250.94
2022-10-25T05:29:47.225Z,97245.53
2022-10-25T05:30:48.957Z,97245.34
2022-10-25T05:31:50.987Z,97245.94
2022-10-25T05:32:52.785Z,97250.94
2022-10-25T05:33:56.195Z,97255.78
2022-10-25T05:34:57.961Z,97261.44
2022-10-25T05:36:00.761Z,97261.44
2022-10-25T05:37:02.576Z,97255.38
2022-10-25T05:38:04.375Z,97247.75
2022-10-25T05:39:06.205Z,97257.19
2022-10-25T05:40:08.256Z,97264.03
2022-10-25T05:41:11.255Z,97256.19
2022-10-25T05:42:13.255Z,97255.59
2022-10-25T05:43:15.117Z,97266.06
2022-10-25T05:44:17.032Z,97257.41
2022-10-25T05:45:18.876Z,97256.63
2022-10-25T05:46:21.924Z,97255.59
2022-10-25T05:47:23.758Z,97264.88
2022-10-25T05:48:25.626Z,97261.81
2022-10-25T05:49:27.420Z,97267.06
2022-10-25T05:50:29.261Z,97267.06
2022-10-25T05:51:36.688Z,97267.06
2022-10-25T05:52:42.472Z,97271.50
2022-10-25T05:54:04.452Z,97268.69
2022-10-25T05:55:06.427Z,97272.09
2022-10-25T05:56:08.255Z,97267.06
2022-10-25T05:57:10.087Z,97271.91
2022-10-25T05:58:12.002Z,97273.91
2022-10-25T05:59:14.952Z,97273.91
2022-10-25T06:00:17.102Z,97283.38
2022-10-25T06:01:20.377Z,97285.00
2022-10-25T06:02:22.444Z,97287.00
2022-10-25T06:03:24.495Z,97295.25
2022-10-25T06:04:26.464Z,97298.06
2022-10-25T06:05:28.387Z,97302.94
2022-10-25T06:06:30.251Z,97296.69
2022-10-25T06:07:32.066Z,97286.59
2022-10-25T06:08:34.281Z,97281.19
2022-10-25T06:09:36.101Z,97287.22
2022-10-25T06:10:37.920Z,97287.00
2022-10-25T06:11:40.569Z,97295.69
2022-10-25T06:12:42.302Z,97299.13
2022-10-25T06:13:44.201Z,97302.72
2022-10-25T06:14:45.957Z,97306.16
2022-10-25T06:15:47.830Z,97308.16
2022-10-25T06:16:49.659Z,97300.94
2022-10-25T06:17:51.479Z,97301.72
2022-10-25T06:18:54.304Z,97309.78
2022-10-25T06:19:56.155Z,97312.22
2022-10-25T06:21:01.013Z,97320.06
2022-10-25T06:22:03.003Z,97309.59
2022-10-25T06:23:08.004Z,97301.75
2022-10-25T06:24:12.453Z,97308.78
2022-10-25T06:25:14.263Z,97303.75
2022-10-25T06:26:17.464Z,97308.19
2022-10-25T06:27:19.675Z,97297.91
2022-10-25T06:28:21.468Z,97304.16
2022-10-25T06:29:23.339Z,97306.75
2022-10-25T06:30:25.240Z,97310.81
2022-10-25T06:31:27.276Z,97310.59
2022-10-25T06:32:29.103Z,97307.78
2022-10-25T06:33:31.375Z,97312.41
2022-10-25T06:34:33.252Z,97308.59
2022-10-25T06:35:35.182Z,97313.19
2022-10-25T06:36:37.061Z,97310.00
2022-10-25T06:37:38.882Z,97310.59
2022-10-25T06:38:40.741Z,97313.41
2022-10-25T06:39:42.656Z,97312.19
2022-10-25T06:40:44.481Z,97319.84
2022-10-25T06:41:46.319Z,97319.06
2022-10-25T06:42:48.366Z,97318.84
2022-10-25T06:43:50.651Z,97319.84
2022-10-25T06:44:52.544Z,97324.28
2022-10-25T06:45:54.357Z,97323.06
2022-10-25T06:47:16.449Z,97316.84
2022-10-25T06:48:18.104Z,97306.75
2022-10-25T06:49:19.930Z,97316.25
2022-10-25T06:50:21.940Z,97312.59
2022-10-25T06:51:24.405Z,97317.63
2022-10-25T06:52:26.124Z,97320.66
2022-10-25T06:53:27.948Z,97315.63
2022-10-25T06:54:29.799Z,97318.25
2022-10-25T06:55:31.926Z,97324.88
2022-10-25T06:56:34.071Z,97325.47
2022-10-25T06:57:35.896Z,97323.09
2022-10-25T06:58:38.299Z,97319.03
2022-10-25T06:59:40.090Z,97330.72
2022-10-25T07:00:43.738Z,97328.91
2022-10-25T07:01:48.630Z,97340.78
2022-10-25T07:02:57.181Z,97338.97
2022-10-25T07:03:59.771Z,97347.22
2022-10-25T07:05:01.647Z,97354.47
2022-10-25T07:06:07.805Z,97352.44
2022-10-25T07:07:10.577Z,97357.28
2022-10-25T07:08:12.367Z,97353.44
2022-10-25T07:09:16.191Z,97356.06
2022-10-25T07:10:18.359Z,97348.03
2022-10-25T07:11:20.917Z,97348.44
2022-10-25T07:12:22.945Z,97347.59
2022-10-25T07:13:24.729Z,97354.47
2022-10-25T07:14:26.521Z,97358.66
2022-10-25T07:15:28.494Z,97360.28
2022-10-25T07:16:30.429Z,97361.09
2022-10-25T07:17:32.317Z,97359.06
2022-10-25T07:18:34.650Z,97352.03
2022-10-25T07:19:36.432Z,97356.06
2022-10-25T07:20:38.263Z,97354.25
2022-10-25T07:21:40.162Z,97355.25
2022-10-25T07:22:42.045Z,97352.03
2022-10-25T07:23:44.533Z,97347.59
2022-10-25T07:24:46.306Z,97345.22
2022-10-25T07:25:48.159Z,97339.13
2022-10-25T07:26:50.035Z,97339.16
2022-10-25T07:27:51.795Z,97331.94
2022-10-25T07:28:54.475Z,97333.16
2022-10-25T07:29:56.287Z,97330.09
2022-10-25T07:30:58.156Z,97328.28
2022-10-25T07:31:59.984Z,97315.41
2022-10-25T07:33:03.660Z,97321.47
2022-10-25T07:34:06.053Z,97312.41
2022-10-25T07:35:07.968Z,97308.78
2022-10-25T07:36:11.838Z,97314.19
2022-10-25T07:37:13.918Z,97309.16
2022-10-25T07:38:16.178Z,97322.84
2022-10-25T07:39:18.169Z,97316.59
2022-10-25T07:40:20.053Z,97317.19
2022-10-25T07:41:21.902Z,97315.59
2022-10-25T07:42:23.689Z,97312.16
2022-10-25T07:43:29.092Z,97315.53
2022-10-25T07:44:30.936Z,97314.91
2022-10-25T07:45:32.697Z,97318.09
2022-10-25T07:46:34.615Z,97328.16
2022-10-25T07:47:36.431Z,97325.09
2022-10-25T07:48:38.226Z,97329.91
2022-10-25T07:49:40.315Z,97329.69
2022-10-25T07:50:42.131Z,97338.09
2022-10-25T07:51:44.029Z,97330.41
2022-10-25T07:52:46.281Z,97331.59
2022-10-25T07:53:48.216Z,97337.66
2022-10-25T07:54:50.041Z,97331.97
2022-10-25T07:55:52.679Z,97322.31
2022-10-25T07:56:54.604Z,97327.53
2022-10-25T07:58:00.172Z,97335.41
2022-10-25T07:59:02.079Z,97332.59
2022-10-25T08:00:04.608Z,97333.25
2022-10-25T08:01:09.601Z,97335.06
2022-10-25T08:02:12.220Z,97342.69
2022-10-25T08:03:15.083Z,97343.09
2022-10-25T08:04:17.154Z,97344.72
2022-10-25T08:05:18.972Z,97347.09
2022-10-25T08:06:21.929Z,97345.66
2022-10-25T08:07:23.819Z,97341.59
2022-10-25T08:08:25.903Z,97349.72
2022-10-25T08:09:37.736Z,97352.16
2022-10-25T08:10:41.566Z,97358.78
2022-10-25T08:11:43.504Z,97350.91
2022-10-25T08:12:45.338Z,97351.75
2022-10-25T08:13:49.067Z,97357.34
2022-10-25T08:14:50.883Z,97356.94
2022-10-25T08:15:53.286Z,97347.63
2022-10-25T08:16:55.080Z,97344.00
2022-10-25T08:18:00.563Z,97349.84
2022-10-25T08:19:02.492Z,97341.97
2022-10-25T08:20:04.525Z,97340.94
2022-10-25T08:21:06.336Z,97344.75
2022-10-25T08:22:09.060Z,97345.56
2022-10-25T08:23:10.811Z,97338.72
2022-10-25T08:24:12.795Z,97344.75
2022-10-25T08:25:15.227Z,97342.94
2022-10-25T08:26:17.161Z,97341.50
2022-10-25T08:27:18.979Z,97336.28
2022-10-25T08:28:21.326Z,97340.16
2022-10-25T08:29:23.226Z,97338.75
2022-10-25T08:30:25.123Z,97338.97
2022-10-25T08:31:27.111Z,97337.56
2022-10-25T08:32:29.767Z,97332.75
2022-10-25T08:33:32.584Z,97339.81
2022-10-25T08:34:34.614Z,97338.19
2022-10-25T08:35:36.568Z,97340.44
2022-10-25T08:36:38.373Z,97338.84
2022-10-25T08:37:40.353Z,97331.38
2022-10-25T08:38:42.235Z,97336.41
2022-10-25T08:39:44.910Z,97336.81
2022-10-25T08:40:49.797Z,97334.34
2022-10-25T08:41:53.832Z,97329.09
2022-10-25T08:43:13.973Z,97334.78
2022-10-25T08:44:33.846Z,97339.59
2022-10-25T08:45:35.597Z,97343.81
2022-10-25T08:46:40.729Z,97340.41
2022-10-25T08:47:44.272Z,97335.97
2022-10-25T08:48:48.780Z,97338.16
2022-10-25T08:49:50.519Z,97337.72
2022-10-25T08:50:53.699Z,97341.53
2022-10-25T08:51:57.003Z,97341.72
2022-10-25T08:53:01.947Z,97345.53
2022-10-25T08:54:06.869Z,97347.31
2022-10-25T08:55:26.617Z,97344.63
2022-10-25T08:56:28.992Z,97336.09
2022-10-25T08:57:33.541Z,97336.44
2022-10-25T08:58:37.084Z,97331.63
2022-10-25T08:59:40.940Z,97327.97
2022-10-25T09:00:44.515Z,97333.22
2022-10-25T09:01:52.541Z,97334.84
2022-10-25T09:02:55.602Z,97326.75
2022-10-25T09:03:59.198Z,97334.19
2022-10-25T09:05:01.041Z,97342.84
2022-10-25T09:06:10.789Z,97338.19
2022-10-25T09:07:37.389Z,97334.56
2022-10-25T09:09:05.375Z,97333.19
2022-10-25T09:10:14.498Z,97340.81
2022-10-25T09:11:28.484Z,97331.50
2022-10-25T09:12:38.424Z,97333.22
2022-10-25T09:13:40.369Z,97333.13
2022-10-25T09:15:01.944Z,97330.59
2022-10-25T09:16:19.879Z,97328.06
2022-10-25T09:17:29.630Z,97320.84
2022-10-25T09:18:44.989Z,97318.34
2022-10-25T09:20:01.543Z,97314.03
2022-10-25T09:21:11.549Z,97314.03
2022-10-25T09:22:25.986Z,97306.53
2022-10-25T09:23:27.764Z,97304.03
2022-10-25T09:24:56.904Z,97306.38
2022-10-25T09:26:03.746Z,97301.22
2022-10-25T09:27:07.401Z,97300.34
2022-10-25T09:28:17.176Z,97293.19
2022-10-25T09:29:25.248Z,97297.09
2022-10-25T09:30:28.247Z,97293.13
2022-10-25T09:31:31.660Z,97288.66
2022-10-25T09:32:40.905Z,97304.81
2022-10-25T09:33:45.457Z,97302.06
2022-10-25T09:34:47.506Z,97300.41
2022-10-25T09:35:53.708Z,97295.28
2022-10-25T09:37:00.189Z,97297.72
2022-10-25T09:38:13.309Z,97304.25
2022-10-25T09:39:35.449Z,97297.50
2022-10-25T09:40:47.651Z,97307.56
2022-10-25T09:41:54.097Z,97296.38
2022-10-25T09:43:08.005Z,97301.31
2022-10-25T09:44:17.852Z,97295.91
2022-10-25T09:45:26.756Z,97301.88
2022-10-25T09:46:38.592Z,97300.84
2022-10-25T09:47:46.648Z,97301.53
2022-10-25T09:48:48.660Z,97296.38
2022-10-25T09:49:53.524Z,97300.38
2022-10-25T09:51:11.521Z,97303.47
2022-10-25T09:52:18.992Z,97301.75
2022-10-25T09:53:23.940Z,97303.69
2022-10-25T09:54:29.840Z,97306.91
2022-10-25T09:55:37.497Z,97293.81
2022-10-25T09:56:41.604Z,97295.00
2022-10-25T09:57:43.534Z,97298.19
2022-10-25T09:58:47.508Z,97290.28
2022-10-25T09:59:50.774Z,97289.13
2022-10-25T10:00:53.706Z,97285.34
2022-10-25T10:01:55.808Z,97289.56
2022-10-25T10:02:57.858Z,97289.56
2022-10-25T10:04:11.210Z,97288.09
2022-10-25T10:05:14.426Z,97288.41
2022-10-25T10:06:21.912Z,97294.00
2022-10-25T10:07:30.000Z,97294.56
2022-10-25T10:08:33.299Z,97292.50
2022-10-25T10:09:36.100Z,97289.41
2022-10-25T10:10:38.043Z,97292.63
2022-10-25T10:11:40.893Z,97287.09
2022-10-25T10:13:01.141Z,97293.25
2022-10-25T10:14:15.192Z,97285.91
2022-10-25T10:15:25.788Z,97281.78
2022-10-25T10:16:31.938Z,97283.47
2022-10-25T10:17:33.724Z,97291.50
2022-10-25T10:18:35.588Z,97290.31
2022-10-25T10:19:37.538Z,97287.50
2022-10-25T10:20:39.491Z,97291.84
2022-10-25T10:21:44.148Z,97294.81
2022-10-25T10:22:53.914Z,97289.88
2022-10-25T10:24:02.725Z,97294.31
2022-10-25T10:25:05.184Z,97287.78
2022-10-25T10:26:30.271Z,97285.22
2022-10-25T10:27:33.020Z,97289.00
2022-10-25T10:28:35.213Z,97281.09
2022-10-25T10:29:38.019Z,97282.72
2022-10-25T10:30:40.184Z,97285.66
2022-10-25T10:31:43.916Z,97280.69
2022-10-25T10:32:45.915Z,97282.38
2022-10-25T10:33:51.742Z,97282.25
2022-10-25T10:35:00.123Z,97281.75
2022-10-25T10:36:34.175Z,97284.47
2022-10-25T10:37:36.208Z,97279.25
2022-10-25T10:38:38.007Z,97276.63
2022-10-25T10:39:55.222Z,97274.63
2022-10-25T10:41:21.117Z,97278.63
2022-10-25T10:42:23.976Z,97272.38
2022-10-25T10:43:32.881Z,97271.66
2022-10-25T10:44:34.966Z,97263.78
2022-10-25T10:45:36.901Z,97270.19
2022-10-25T10:46:44.410Z,97268.59
2022-10-25T10:47:56.364Z,97269.72
2022-10-25T10:48:59.201Z,97264.75
2022-10-25T10:50:02.179Z,97265.63
2022-10-25T10:51:06.571Z,97261.47
2022-10-25T10:52:39.780Z,97270.00
2022-10-25T10:53:41.760Z,97269.56
2022-10-25T10:54:46.901Z,97260.53
2022-10-25T10:55:50.477Z,97259.25
2022-10-25T10:56:59.498Z,97254.03
2022-10-25T10:58:05.931Z,97252.50
2022-10-25T10:59:24.333Z,97249.63
2022-10-25T11:00:28.083Z,97258.91
2022-10-25T11:01:33.268Z,97250.78
2022-10-25T11:02:38.585Z,97260.91
2022-10-25T11:03:59.264Z,97255.66
2022-10-25T11:05:02.489Z,97249.44
2022-10-25T11:06:16.700Z,97242.13
2022-10-25T11:07:26.109Z,97237.44
2022-10-25T11:08:27.962Z,97245.44
2022-10-25T11:09:29.957Z,97237.53
2022-10-25T11:10:33.334Z,97243.25
2022-10-25T11:11:35.181Z,97240.72
2022-10-25T11:12:41.064Z,97238.63
2022-10-25T11:13:51.521Z,97231.84
2022-10-25T11:14:56.043Z,97236.69
2022-10-25T11:16:12.583Z,97239.03
2022-10-25T11:17:26.659Z,97241.69
2022-10-25T11:18:38.821Z,97244.69
2022-10-25T11:19:43.723Z,97241.38
2022-10-25T11:20:54.211Z,97244.41
2022-10-25T11:22:33.043Z,97246.13
2022-10-25T11:23:41.093Z,97238.59
2022-10-25T11:24:58.245Z,97242.59
2022-10-25T11:26:08.993Z,97233.41
2022-10-25T11:27:17.700Z,97240.88
2022-10-25T11:28:45.702Z,97240.88
2022-10-25T11:30:09.954Z,97238.75
2022-10-25T11:31:11.809Z,97240.44
2022-10-25T11:32:13.798Z,97236.22
2022-10-25T11:33:15.568Z,97232.78
2022-10-25T11:34:37.492Z,97228.81
2022-10-25T11:35:48.600Z,97231.53
2022-10-25T11:37:02.767Z,97229.16
2022-10-25T11:38:27.445Z,97229.16
2022-10-25T11:39:37.549Z,97225.25
2022-10-25T11:40:41.651Z,97215.97
2022-10-25T11:41:51.635Z,97218.09
2022-10-25T11:43:05.409Z,97210.66
2022-10-25T11:44:09.725Z,97209.63
2022-10-25T11:45:11.589Z,97217.38
2022-10-25T11:46:29.485Z,97214.41
2022-10-25T11:47:43.334Z,97217.84
2022-10-25T11:49:08.351Z,97212.59
2022-10-25T11:50:14.918Z,97206.75
2022-10-25T11:51:28.517Z,97208.38
2022-10-25T11:52:42.426Z,97211.28
2022-10-25T11:53:57.324Z,97212.06
2022-10-25T11:55:18.393Z,97205.97
2022-10-25T11:56:35.241Z,97200.47
2022-10-25T11:57:46.261Z,97201.25
2022-10-25T11:59:14.666Z,97200.22
2022-10-25T12:00:19.167Z,97202.56
2022-10-25T12:01:39.688Z,97208.63
2022-10-25T12:03:00.336Z,97204.69
2022-10-25T12:04:24.360Z,97200.47
2022-10-25T12:05:44.158Z,97203.16
2022-10-25T12:06:48.699Z,97193.06
2022-10-25T12:07:53.312Z,97201.56
2022-10-25T12:09:15.747Z,97196.78
2022-10-25T12:10:17.647Z,97191.50
2022-10-25T12:11:23.135Z,97185.38
2022-10-25T12:12:27.159Z,97187.19
2022-10-25T12:13:34.417Z,97187.97
2022-10-25T12:14:41.202Z,97181.31
2022-10-25T12:15:44.523Z,97188.53
2022-10-25T12:16:46.306Z,97183.47
2022-10-25T12:17:50.095Z,97189.84
2022-10-25T12:18:57.452Z,97188.56
2022-10-25T12:20:02.248Z,97186.66
2022-10-25T12:21:05.236Z,97181.88
2022-10-25T12:22:15.580Z,97181.03
2022-10-25T12:23:20.099Z,97186.09
2022-10-25T12:24:23.705Z,97181.88
2022-10-25T12:25:34.174Z,97180.28
2022-10-25T12:26:37.351Z,97175.00
2022-10-25T12:27:40.373Z,97177.41
2022-10-25T12:28:46.577Z,97181.31
2022-10-25T12:30:07.969Z,97179.22
2022-10-25T12:31:14.435Z,97181.31
2022-10-25T12:32:23.898Z,97179.75
2022-10-25T12:33:25.759Z,97184.81
2022-10-25T12:34:39.303Z,97189.06
2022-10-25T12:35:45.403Z,97189.34
2022-10-25T12:36:49.302Z,97180.59
2022-10-25T12:37:56.474Z,97177.91
2022-10-25T12:39:02.616Z,97177.56
2022-10-25T12:40:05.876Z,97184.41
2022-10-25T12:41:09.493Z,97180.66
2022-10-25T12:42:23.510Z,97180.09
2022-10-25T12:43:33.009Z,97183.53
2022-10-25T12:44:34.700Z,97191.19
2022-10-25T12:45:42.449Z,97181.72